This is the latest recevied weather packets stored in our database for station/object DL8FX-6. If no packets are shown the sender has not sent any weather packets the latest 10 day(s).
| Time | Temp. | Humidity | Pressure | Rain* | Wind** | Luminosity | Snow |
|---|---|---|---|---|---|---|---|
| 1778038238 | 10.56° C | 99% | 1003.4 hPa | 2.79 mm | - | - | - |
| 1778032862 | 10.56° C | 97% | 1004.1 hPa | 1.52 mm | - | - | - |
| 1778032258 | 10.56° C | 97% | 1004.2 hPa | 1.27 mm | - | - | - |
| 1778030446 | 11.11° C | 96% | 1004.5 hPa | 0.51 mm | - | - | - |
| 1778029843 | 11.11° C | 96% | 1004.7 hPa | 0.51 mm | - | - | - |
| 1778022072 | 11.67° C | 94% | 1005.7 hPa | 0 mm | - | - | - |
| 1778020240 | 12.22° C | 93% | 1005.9 hPa | 0 mm | - | - | - |
| 1778017845 | 12.22° C | 93% | 1005.9 hPa | 0 mm | - | - | - |
| 1778016617 | 12.78° C | 90% | 1006 hPa | 0 mm | - | - | - |
| 1778013696 | 12.78° C | 89% | 1006.1 hPa | 0 mm | - | - | - |
| 1778012449 | 12.78° C | 88% | 1006.1 hPa | 0 mm | - | - | - |
| 1778011845 | 12.78° C | 88% | 1006.1 hPa | 0 mm | - | - | - |
| 1778009428 | 13.33° C | 87% | 1006 hPa | 0 mm | - | - | - |
| 1778001074 | 17.78° C | 74% | 1005.7 hPa | 0 mm | - | - | - |
| 1777993847 | 20° C | 67% | 1006 hPa | 0 mm | - | - | - |
| 1777989017 | 18.33° C | 73% | 1006.4 hPa | 0 mm | - | - | - |
| 1777975846 | 17.78° C | 75% | 1007.4 hPa | 0 mm | - | - | - |
| 1777975242 | 17.22° C | 79% | 1007.4 hPa | 0 mm | - | - | - |
| 1777972825 | 16.67° C | 80% | 1007.5 hPa | 0 mm | - | - | - |
| 1777971617 | 16.67° C | 84% | 1007.5 hPa | 0 mm | - | - | - |
| 1777971073 | 16.67° C | 85% | 1007.6 hPa | 0 mm | - | - | - |
| 1777970469 | 16.11° C | 85% | 1007.5 hPa | 0 mm | - | - | - |
| 1777968657 | 15.56° C | 89% | 1007.7 hPa | 0 mm | - | - | - |
| 1777966242 | 15° C | 93% | 1007.5 hPa | 0 mm | - | - | - |
| 1777965638 | 15° C | 95% | 1007.6 hPa | 0 mm | - | - | - |
* Rain latest hour (hover to see other rain measurements)
** Current wind speed in m/s (hover to see current wind gust speed)